createdAt,value
2017-12-01T00:00:42.043Z,96.78
2017-12-01T00:03:10.336Z,96.07
2017-12-01T00:05:39.402Z,95.61
2017-12-01T00:08:07.710Z,95.80
2017-12-01T00:10:36.000Z,95.73
2017-12-01T00:13:04.288Z,95.01
2017-12-01T00:15:32.609Z,94.44
2017-12-01T00:18:00.913Z,94.17
2017-12-01T00:20:29.209Z,94.40
2017-12-01T00:22:58.282Z,94.35
2017-12-01T00:25:27.356Z,93.97
2017-12-01T00:27:55.672Z,94.46
2017-12-01T00:30:23.957Z,94.89
2017-12-01T00:32:52.265Z,94.71
2017-12-01T00:35:20.553Z,95.08
2017-12-01T00:37:48.825Z,94.66
2017-12-01T00:40:17.121Z,94.64
2017-12-01T00:42:46.174Z,94.64
2017-12-01T00:45:14.470Z,94.39
2017-12-01T00:47:42.769Z,94.18
2017-12-01T00:50:11.930Z,94.13
2017-12-01T00:52:40.212Z,93.98
2017-12-01T00:55:08.525Z,93.55
2017-12-01T00:57:36.832Z,92.97
2017-12-01T01:00:05.119Z,93.36
2017-12-01T01:02:33.409Z,93.45
2017-12-01T01:05:01.700Z,94.48
2017-12-01T01:07:29.993Z,94.72
2017-12-01T01:09:58.303Z,96.38
2017-12-01T01:12:27.149Z,96.20
2017-12-01T01:14:55.433Z,97.31
2017-12-01T01:17:23.732Z,98.37
2017-12-01T01:19:52.817Z,97.81
2017-12-01T01:22:21.877Z,97.58
2017-12-01T01:24:50.189Z,96.76
2017-12-01T01:27:18.519Z,95.95
2017-12-01T01:29:47.580Z,96.50
2017-12-01T01:32:16.690Z,95.92
2017-12-01T01:34:44.995Z,96.02
2017-12-01T01:37:13.278Z,95.95
2017-12-01T01:39:41.577Z,96.21
2017-12-01T01:42:09.872Z,96.17
2017-12-01T01:44:38.929Z,96.77
2017-12-01T01:47:07.228Z,97.03
2017-12-01T01:49:35.508Z,96.34
2017-12-01T01:52:04.574Z,95.95
2017-12-01T01:54:32.868Z,97.25
2017-12-01T01:57:01.165Z,97.10
2017-12-01T01:59:29.456Z,96.03
2017-12-01T02:01:57.761Z,96.37
2017-12-01T02:04:26.049Z,97.75
2017-12-01T02:06:54.345Z,97.57
2017-12-01T02:09:22.634Z,97.07
2017-12-01T02:11:50.946Z,97.61
2017-12-01T02:14:19.250Z,96.69
2017-12-01T02:16:48.189Z,96.14
2017-12-01T02:19:17.250Z,96.98
2017-12-01T02:21:45.591Z,97.03
2017-12-01T02:24:13.915Z,96.58
2017-12-01T02:26:43.357Z,96.06
2017-12-01T02:29:11.671Z,95.09
2017-12-01T02:31:39.986Z,95.50
2017-12-01T02:34:08.411Z,95.16
2017-12-01T02:36:36.709Z,94.81
2017-12-01T02:39:04.997Z,95.04
2017-12-01T02:41:33.313Z,94.98
2017-12-01T02:44:01.606Z,93.92
2017-12-01T02:46:29.900Z,94.54
2017-12-01T02:48:58.180Z,94.47
2017-12-01T02:51:26.476Z,94.60
2017-12-01T02:53:54.790Z,94.68
2017-12-01T02:56:23.086Z,94.68
2017-12-01T02:58:51.376Z,94.03
2017-12-01T03:01:19.661Z,93.60
2017-12-01T03:03:47.962Z,93.58
2017-12-01T03:06:16.266Z,92.95
2017-12-01T03:08:44.581Z,92.98
2017-12-01T03:11:12.866Z,92.36
2017-12-01T03:13:41.192Z,92.62
2017-12-01T03:16:09.478Z,92.33
2017-12-01T03:18:37.783Z,91.79
2017-12-01T03:21:06.073Z,91.95
2017-12-01T03:23:34.386Z,90.56
2017-12-01T03:26:02.683Z,90.46
2017-12-01T03:28:30.997Z,90.84
2017-12-01T03:30:59.290Z,91.55
2017-12-01T03:33:27.580Z,91.85
2017-12-01T03:35:55.889Z,93.38
2017-12-01T03:38:24.185Z,92.92
2017-12-01T03:40:52.483Z,92.72
2017-12-01T03:43:20.780Z,94.05
2017-12-01T03:45:49.069Z,94.15
2017-12-01T03:48:17.369Z,95.06
2017-12-01T03:50:46.449Z,95.34
2017-12-01T03:53:14.753Z,94.76
2017-12-01T03:55:43.805Z,93.88
2017-12-01T03:58:12.099Z,93.68
2017-12-01T04:00:40.390Z,93.94
2017-12-01T04:03:08.682Z,93.70
2017-12-01T04:05:36.977Z,93.60
2017-12-01T04:08:05.316Z,93.08
2017-12-01T04:10:34.368Z,92.54
2017-12-01T04:13:02.665Z,92.43
2017-12-01T04:15:30.974Z,92.67
2017-12-01T04:17:59.269Z,92.56
2017-12-01T04:20:27.561Z,93.92
2017-12-01T04:22:55.858Z,94.93
2017-12-01T04:25:24.158Z,97.14
2017-12-01T04:27:52.461Z,99.70
2017-12-01T04:30:20.758Z,100.00
2017-12-01T04:32:49.048Z,100.00
2017-12-01T04:35:18.100Z,99.79
2017-12-01T04:37:47.149Z,100.00
2017-12-01T04:40:15.452Z,100.00
2017-12-01T04:42:43.750Z,100.00
2017-12-01T04:45:12.041Z,100.00
2017-12-01T04:47:41.072Z,100.00
2017-12-01T04:50:09.351Z,99.67
2017-12-01T04:52:37.696Z,98.48
2017-12-01T04:55:05.995Z,97.79
2017-12-01T04:57:34.278Z,96.90
2017-12-01T05:00:03.004Z,96.22
2017-12-01T05:02:31.316Z,95.83
2017-12-01T05:04:59.613Z,95.38
2017-12-01T05:07:27.936Z,95.09
2017-12-01T05:09:57.002Z,94.86
2017-12-01T05:12:25.305Z,94.37
2017-12-01T05:14:53.585Z,94.42
2017-12-01T05:17:21.890Z,93.75
2017-12-01T05:19:50.253Z,93.29
2017-12-01T05:22:18.549Z,93.29
2017-12-01T05:24:46.846Z,93.07
2017-12-01T05:27:15.137Z,93.08
2017-12-01T05:29:43.420Z,92.47
2017-12-01T05:32:11.700Z,92.19
2017-12-01T05:34:39.989Z,91.64
2017-12-01T05:37:08.273Z,91.56
2017-12-01T05:39:36.556Z,91.85
2017-12-01T05:42:05.619Z,91.73
2017-12-01T05:44:33.901Z,92.09
2017-12-01T05:47:02.192Z,91.82
2017-12-01T05:49:30.504Z,91.86
2017-12-01T05:51:58.788Z,91.07
2017-12-01T05:54:27.081Z,91.10
2017-12-01T05:56:56.156Z,92.34
2017-12-01T05:59:24.444Z,92.25
2017-12-01T06:01:52.732Z,92.49
2017-12-01T06:04:21.028Z,92.05
2017-12-01T06:06:49.321Z,92.25
2017-12-01T06:09:18.381Z,92.83
2017-12-01T06:11:46.670Z,93.09
2017-12-01T06:14:14.965Z,92.69
2017-12-01T06:16:44.118Z,92.94
2017-12-01T06:19:12.425Z,93.49
2017-12-01T06:21:40.721Z,93.09
2017-12-01T06:24:09.027Z,92.93
2017-12-01T06:26:37.665Z,93.04
2017-12-01T06:29:05.955Z,92.77
2017-12-01T06:31:34.259Z,92.75
2017-12-01T06:34:02.554Z,92.76
2017-12-01T06:36:30.881Z,92.00
2017-12-01T06:38:59.154Z,91.70
2017-12-01T06:41:27.447Z,91.88
2017-12-01T06:43:56.489Z,92.53
2017-12-01T06:46:24.773Z,92.74
2017-12-01T06:48:53.057Z,92.69
2017-12-01T06:51:21.345Z,92.90
2017-12-01T06:53:49.639Z,92.30
2017-12-01T06:56:18.688Z,92.11
2017-12-01T06:58:46.987Z,91.88
2017-12-01T07:01:15.288Z,92.83
2017-12-01T07:03:44.357Z,94.40
2017-12-01T07:06:12.657Z,94.78
2017-12-01T07:08:40.947Z,95.07
2017-12-01T07:11:09.236Z,96.29
2017-12-01T07:13:37.524Z,97.62
2017-12-01T07:16:05.811Z,97.03
2017-12-01T07:18:34.089Z,96.92
2017-12-01T07:21:02.405Z,97.29
2017-12-01T07:23:30.696Z,96.86
2017-12-01T07:25:59.566Z,95.96
2017-12-01T07:28:27.860Z,95.57
2017-12-01T07:30:56.140Z,95.34
2017-12-01T07:33:24.410Z,95.10
2017-12-01T07:35:53.447Z,94.38
2017-12-01T07:38:21.728Z,94.90
2017-12-01T07:40:50.018Z,94.77
2017-12-01T07:43:18.302Z,94.95
2017-12-01T07:45:46.593Z,94.42
2017-12-01T07:48:14.882Z,94.37
2017-12-01T07:50:43.169Z,94.07
2017-12-01T07:53:11.452Z,93.54
2017-12-01T07:55:40.515Z,92.88
2017-12-01T07:58:08.809Z,92.95
2017-12-01T08:00:37.857Z,92.26
2017-12-01T08:03:06.153Z,91.77
2017-12-01T08:05:34.441Z,91.17
2017-12-01T08:08:02.730Z,90.97
2017-12-01T08:10:33.017Z,90.34
2017-12-01T08:13:01.334Z,90.64
2017-12-01T08:15:29.624Z,89.93
2017-12-01T08:21:13.494Z,91.33
2017-12-01T08:26:56.167Z,90.37
2017-12-01T08:29:24.459Z,90.87
2017-12-01T08:31:52.755Z,90.16
2017-12-01T08:34:21.079Z,90.26
2017-12-01T08:36:49.355Z,89.54
2017-12-01T08:39:17.644Z,90.10
2017-12-01T08:41:45.945Z,90.43
2017-12-01T08:44:14.244Z,90.26
2017-12-01T08:46:43.825Z,90.89
2017-12-01T08:49:12.161Z,93.15
2017-12-01T08:51:40.444Z,96.04
2017-12-01T08:54:08.722Z,95.12
2017-12-01T08:56:37.001Z,93.94
2017-12-01T08:59:05.291Z,93.23
2017-12-01T09:01:33.569Z,92.52
2017-12-01T09:04:01.864Z,91.17
2017-12-01T09:06:30.174Z,90.37
2017-12-01T09:08:58.457Z,91.10
2017-12-01T09:11:26.746Z,90.16
2017-12-01T09:13:55.028Z,89.65
2017-12-01T09:16:23.509Z,88.64
2017-12-01T09:18:51.793Z,88.66
2017-12-01T09:21:20.072Z,89.87
2017-12-01T09:23:48.367Z,89.83
2017-12-01T09:26:17.244Z,89.52
2017-12-01T09:28:45.521Z,88.89
2017-12-01T09:31:13.803Z,88.06
2017-12-01T09:33:42.097Z,88.50
2017-12-01T09:36:10.408Z,87.25
2017-12-01T09:38:38.694Z,87.70
2017-12-01T09:41:06.982Z,88.14
2017-12-01T09:43:35.266Z,87.93
2017-12-01T09:46:03.554Z,87.70
2017-12-01T09:48:31.852Z,88.07
2017-12-01T09:51:00.137Z,88.75
2017-12-01T09:53:28.440Z,89.34
2017-12-01T09:55:56.725Z,89.83
2017-12-01T09:58:25.845Z,89.79
2017-12-01T10:00:54.133Z,89.33
2017-12-01T10:03:22.432Z,89.12
2017-12-01T10:05:50.762Z,89.80
2017-12-01T10:08:19.084Z,89.15
2017-12-01T10:10:47.376Z,89.41
2017-12-01T10:13:15.668Z,89.27
2017-12-01T10:15:43.956Z,88.88
2017-12-01T10:18:12.249Z,88.16
2017-12-01T10:20:40.530Z,87.51
2017-12-01T10:23:08.814Z,88.23
2017-12-01T10:25:37.083Z,87.83
2017-12-01T10:28:05.367Z,87.71
2017-12-01T10:30:33.642Z,87.70
2017-12-01T10:33:01.922Z,87.88
2017-12-01T10:35:30.199Z,88.36
2017-12-01T10:37:58.476Z,89.46
2017-12-01T10:40:26.771Z,89.26
2017-12-01T10:42:55.083Z,88.21
2017-12-01T10:45:23.372Z,89.14
2017-12-01T10:47:51.671Z,89.28
2017-12-01T10:50:19.957Z,88.81
2017-12-01T10:52:48.237Z,89.13
2017-12-01T10:55:16.512Z,89.51
2017-12-01T10:57:44.792Z,88.62
2017-12-01T11:00:13.076Z,88.38
2017-12-01T11:02:41.369Z,87.96
2017-12-01T11:05:09.660Z,87.42
2017-12-01T11:07:38.702Z,87.65
2017-12-01T11:10:08.001Z,88.05
2017-12-01T11:12:36.336Z,88.50
2017-12-01T11:15:05.377Z,89.85
2017-12-01T11:17:33.678Z,90.15
2017-12-01T11:20:01.983Z,90.96
2017-12-01T11:22:30.265Z,91.20
2017-12-01T11:24:59.235Z,90.57
2017-12-01T11:27:27.521Z,91.18
2017-12-01T11:29:55.824Z,91.92
2017-12-01T11:32:24.908Z,93.39
2017-12-01T11:34:54.028Z,93.87
2017-12-01T11:37:22.400Z,93.91
2017-12-01T11:39:50.692Z,93.50
2017-12-01T11:42:19.141Z,93.46
2017-12-01T11:44:48.220Z,93.42
2017-12-01T11:47:16.531Z,93.90
2017-12-01T11:49:44.819Z,93.68
2017-12-01T11:52:13.120Z,93.14
2017-12-01T11:54:41.400Z,92.74
2017-12-01T11:57:09.693Z,93.13
2017-12-01T11:59:38.069Z,93.07
2017-12-01T12:02:06.391Z,92.52
2017-12-01T12:04:35.443Z,92.11
2017-12-01T12:07:03.849Z,91.24
2017-12-01T12:09:32.936Z,91.36
2017-12-01T12:12:01.312Z,90.85
2017-12-01T12:14:29.587Z,90.84
2017-12-01T12:16:58.634Z,90.60
2017-12-01T12:19:26.924Z,90.36
2017-12-01T12:21:55.440Z,90.39
2017-12-01T12:24:23.724Z,91.14
2017-12-01T12:26:52.018Z,90.37
2017-12-01T12:29:20.351Z,90.25
2017-12-01T12:31:48.645Z,89.88
2017-12-01T12:34:16.936Z,90.22
2017-12-01T12:36:46.365Z,89.86
2017-12-01T12:39:14.679Z,89.85
2017-12-01T12:41:42.965Z,89.73
2017-12-01T12:44:11.263Z,90.38
2017-12-01T12:46:41.954Z,89.52
2017-12-01T12:49:10.241Z,90.13
2017-12-01T12:51:38.530Z,89.68
2017-12-01T12:54:06.817Z,89.45
2017-12-01T12:56:35.109Z,89.13
2017-12-01T12:59:03.395Z,88.50
2017-12-01T13:01:31.682Z,87.82
2017-12-01T13:04:00.854Z,88.51
2017-12-01T13:06:29.144Z,88.37
2017-12-01T13:08:57.445Z,88.40
2017-12-01T13:11:26.678Z,88.72
2017-12-01T13:13:54.969Z,88.59
2017-12-01T13:16:23.273Z,88.52
2017-12-01T13:18:51.564Z,89.16
2017-12-01T13:21:19.848Z,89.29
2017-12-01T13:23:48.900Z,89.35
2017-12-01T13:26:17.189Z,89.14
2017-12-01T13:28:45.496Z,89.42
2017-12-01T13:31:13.784Z,89.63
2017-12-01T13:33:42.069Z,89.66
2017-12-01T13:36:10.349Z,89.93
2017-12-01T13:38:38.628Z,89.78
2017-12-01T13:41:06.933Z,89.97
2017-12-01T13:43:35.236Z,90.04
2017-12-01T13:46:03.532Z,89.64
2017-12-01T13:48:31.825Z,89.74
2017-12-01T13:51:00.129Z,89.70
2017-12-01T13:53:28.416Z,89.81
2017-12-01T13:55:56.706Z,89.80
2017-12-01T13:58:25.027Z,89.95
2017-12-01T14:00:53.317Z,89.94
2017-12-01T14:03:21.608Z,90.38
2017-12-01T14:05:49.891Z,90.22
2017-12-01T14:08:18.184Z,91.14
2017-12-01T14:10:46.478Z,91.38
2017-12-01T14:13:14.769Z,91.14
2017-12-01T14:15:43.073Z,90.95
2017-12-01T14:18:11.369Z,91.03
2017-12-01T14:20:39.661Z,91.56
2017-12-01T14:23:07.968Z,91.68
2017-12-01T14:25:36.260Z,92.19
2017-12-01T14:28:04.544Z,92.04
2017-12-01T14:30:32.826Z,93.17
2017-12-01T14:33:01.116Z,92.51
2017-12-01T14:35:29.406Z,92.20
2017-12-01T14:37:57.700Z,93.21
2017-12-01T14:40:25.989Z,93.86
2017-12-01T14:42:54.272Z,93.67
2017-12-01T14:45:22.555Z,93.63
2017-12-01T14:47:50.852Z,92.21
2017-12-01T14:50:19.141Z,91.91
2017-12-01T14:52:47.445Z,92.26
2017-12-01T14:55:15.736Z,92.67
2017-12-01T14:57:44.016Z,92.37
2017-12-01T15:00:12.295Z,92.23
2017-12-01T15:02:40.577Z,92.18
2017-12-01T15:05:08.860Z,93.74
2017-12-01T15:07:37.178Z,94.49
2017-12-01T15:10:06.893Z,93.76
2017-12-01T15:12:35.142Z,93.96
2017-12-01T15:15:03.421Z,93.40
2017-12-01T15:17:31.704Z,93.40
2017-12-01T15:19:59.992Z,93.64
2017-12-01T15:22:28.289Z,94.23
2017-12-01T15:24:56.622Z,94.29
2017-12-01T15:27:24.897Z,94.81
2017-12-01T15:29:53.182Z,94.36
2017-12-01T15:32:21.466Z,94.18
2017-12-01T15:34:49.753Z,94.07
2017-12-01T15:37:18.061Z,94.18
2017-12-01T15:39:46.371Z,94.42
2017-12-01T15:42:14.650Z,94.63
2017-12-01T15:44:43.618Z,94.52
2017-12-01T15:47:12.660Z,93.81
2017-12-01T15:49:40.949Z,94.19
2017-12-01T15:52:09.229Z,94.67
2017-12-01T15:54:37.517Z,95.24
2017-12-01T15:57:05.800Z,95.58
2017-12-01T15:59:34.088Z,96.03
2017-12-01T16:02:02.369Z,96.42
2017-12-01T16:04:30.660Z,96.48
2017-12-01T16:06:58.964Z,96.41
2017-12-01T16:09:27.252Z,95.60
2017-12-01T16:11:55.539Z,95.65
2017-12-01T16:14:23.833Z,95.12
2017-12-01T16:16:52.122Z,95.46
2017-12-01T16:19:21.693Z,95.63
2017-12-01T16:21:49.990Z,96.28
2017-12-01T16:24:18.303Z,96.13
2017-12-01T16:26:46.580Z,95.59
2017-12-01T16:29:14.873Z,95.29
2017-12-01T16:31:43.341Z,94.29
2017-12-01T16:34:11.621Z,93.98
2017-12-01T16:36:40.699Z,93.60
2017-12-01T16:39:08.988Z,93.12
2017-12-01T16:41:37.281Z,93.03
2017-12-01T16:44:05.580Z,93.18
2017-12-01T16:46:33.870Z,92.68
2017-12-01T16:49:02.941Z,92.63
2017-12-01T16:51:31.232Z,92.37
2017-12-01T16:53:59.528Z,92.23
2017-12-01T16:56:27.822Z,92.04
2017-12-01T16:58:56.115Z,93.00
2017-12-01T17:01:24.479Z,92.53
2017-12-01T17:03:52.732Z,92.34
2017-12-01T17:06:21.028Z,92.36
2017-12-01T17:08:49.824Z,91.84
2017-12-01T17:11:18.121Z,92.40
2017-12-01T17:13:46.405Z,92.62
2017-12-01T17:16:14.690Z,92.31
2017-12-01T17:18:42.986Z,95.77
2017-12-01T17:21:11.268Z,97.98
2017-12-01T17:23:41.272Z,99.65
2017-12-01T17:26:09.573Z,99.79
2017-12-01T17:28:37.864Z,99.14
2017-12-01T17:31:06.904Z,98.14
2017-12-01T17:33:35.657Z,97.22
2017-12-01T17:36:03.961Z,96.66
2017-12-01T17:38:32.252Z,96.18
2017-12-01T17:41:00.548Z,96.62
2017-12-01T17:43:28.821Z,96.98
2017-12-01T17:45:57.111Z,96.88
2017-12-01T17:48:26.163Z,96.99
2017-12-01T17:50:54.458Z,96.63
2017-12-01T17:53:22.739Z,95.81
2017-12-01T17:55:51.033Z,94.85
2017-12-01T17:58:19.337Z,95.08
2017-12-01T18:00:47.625Z,96.83
2017-12-01T18:03:15.912Z,96.23
2017-12-01T18:05:44.238Z,96.13
2017-12-01T18:08:12.547Z,96.06
2017-12-01T18:10:40.853Z,96.14
2017-12-01T18:13:09.144Z,95.40
2017-12-01T18:15:37.426Z,95.01
2017-12-01T18:18:05.714Z,94.15
2017-12-01T18:20:33.996Z,93.61
2017-12-01T18:23:03.056Z,93.58
2017-12-01T18:25:31.353Z,94.46
2017-12-01T18:27:59.640Z,94.35
2017-12-01T18:30:27.925Z,97.22
2017-12-01T18:32:56.978Z,99.29
2017-12-01T18:35:25.264Z,99.03
2017-12-01T18:37:53.584Z,98.45
2017-12-01T18:40:21.889Z,98.10
2017-12-01T18:42:50.220Z,97.32
2017-12-01T18:45:18.511Z,96.19
2017-12-01T18:47:47.553Z,97.23
2017-12-01T18:50:16.621Z,96.19
2017-12-01T18:52:44.973Z,96.64
2017-12-01T18:55:13.267Z,96.50
2017-12-01T18:57:41.664Z,96.97
2017-12-01T19:00:10.029Z,98.76
2017-12-01T19:02:38.321Z,99.86
2017-12-01T19:05:06.607Z,99.41
2017-12-01T19:07:35.002Z,99.19
2017-12-01T19:10:03.375Z,98.25
2017-12-01T19:12:31.861Z,97.73
2017-12-01T19:15:00.196Z,97.32
2017-12-01T19:17:28.626Z,97.09
2017-12-01T19:19:57.291Z,96.41
2017-12-01T19:22:26.110Z,96.63
2017-12-01T19:24:54.834Z,96.87
2017-12-01T19:27:23.654Z,96.18
2017-12-01T19:29:52.935Z,98.16
2017-12-01T19:32:22.161Z,97.63
2017-12-01T19:34:51.298Z,96.41
2017-12-01T19:37:21.166Z,96.21
2017-12-01T19:39:51.311Z,96.49
2017-12-01T19:42:21.173Z,96.72
2017-12-01T19:44:50.750Z,96.30
2017-12-01T19:47:20.683Z,95.40
2017-12-01T19:49:50.697Z,94.41
2017-12-01T19:52:20.353Z,94.11
2017-12-01T19:54:50.161Z,94.44
2017-12-01T19:57:19.956Z,94.76
2017-12-01T19:59:49.644Z,94.38
2017-12-01T20:02:19.344Z,93.78
2017-12-01T20:04:49.822Z,94.10
2017-12-01T20:07:19.700Z,95.46
2017-12-01T20:09:49.625Z,94.95
2017-12-01T20:12:20.540Z,94.49
2017-12-01T20:14:51.188Z,95.19
2017-12-01T20:17:21.269Z,95.62
2017-12-01T20:19:51.119Z,95.49
2017-12-01T20:22:21.032Z,95.49
2017-12-01T20:24:51.074Z,95.17
2017-12-01T20:27:21.075Z,94.64
2017-12-01T20:29:51.154Z,94.24
2017-12-01T20:32:21.189Z,93.86
2017-12-01T20:34:51.156Z,93.70
2017-12-01T20:37:20.969Z,93.47
2017-12-01T20:39:51.061Z,93.21
2017-12-01T20:42:21.009Z,93.13
2017-12-01T20:44:50.880Z,93.05
2017-12-01T20:47:20.767Z,92.89
2017-12-01T20:49:51.079Z,93.14
2017-12-01T20:52:21.927Z,93.41
2017-12-01T20:54:52.033Z,93.84
2017-12-01T20:57:22.011Z,94.71
2017-12-01T20:59:51.975Z,93.73
2017-12-01T21:02:22.694Z,94.34
2017-12-01T21:04:52.548Z,94.53
2017-12-01T21:07:23.213Z,94.05
2017-12-01T21:09:53.225Z,93.93
2017-12-01T21:12:23.071Z,93.47
2017-12-01T21:14:53.685Z,93.45
2017-12-01T21:17:24.224Z,93.80
2017-12-01T21:19:54.068Z,94.05
2017-12-01T21:22:24.722Z,93.98
2017-12-01T21:24:54.594Z,94.06
2017-12-01T21:27:24.549Z,93.80
2017-12-01T21:29:55.274Z,93.40
2017-12-01T21:32:25.957Z,93.56
2017-12-01T21:34:56.700Z,94.21
2017-12-01T21:37:27.317Z,93.77
2017-12-01T21:39:57.132Z,93.49
2017-12-01T21:42:26.767Z,93.18
2017-12-01T21:44:55.907Z,93.51
2017-12-01T21:47:26.418Z,93.19
2017-12-01T21:49:55.364Z,92.70
2017-12-01T21:52:24.704Z,92.14
2017-12-01T21:54:53.673Z,91.96
2017-12-01T21:57:22.598Z,91.92
2017-12-01T21:59:51.224Z,91.49
2017-12-01T22:02:20.751Z,91.64
2017-12-01T22:04:49.137Z,92.17
2017-12-01T22:07:23.585Z,92.77
2017-12-01T22:09:52.026Z,93.26
2017-12-01T22:12:20.455Z,92.54
2017-12-01T22:14:48.773Z,92.01
2017-12-01T22:17:17.359Z,92.31
2017-12-01T22:19:45.665Z,92.47
2017-12-01T22:22:14.710Z,92.65
2017-12-01T22:24:42.983Z,92.53
2017-12-01T22:27:11.288Z,92.48
2017-12-01T22:29:40.117Z,91.96
2017-12-01T22:32:08.421Z,92.79
2017-12-01T22:34:36.721Z,93.00
2017-12-01T22:37:05.387Z,92.38
2017-12-01T22:39:33.680Z,92.10
2017-12-01T22:42:02.590Z,92.59
2017-12-01T22:44:30.920Z,93.58
2017-12-01T22:46:59.247Z,93.47
2017-12-01T22:49:27.546Z,93.45
2017-12-01T22:51:55.841Z,93.32
2017-12-01T22:54:24.156Z,92.18
2017-12-01T22:56:52.484Z,92.21
2017-12-01T22:59:20.817Z,92.88
2017-12-01T23:01:49.110Z,92.09
2017-12-01T23:04:17.413Z,91.47
2017-12-01T23:06:45.717Z,91.25
2017-12-01T23:09:14.038Z,91.09
2017-12-01T23:11:42.376Z,91.63
2017-12-01T23:14:10.742Z,91.65
2017-12-01T23:16:39.071Z,91.24
2017-12-01T23:19:07.389Z,90.90
2017-12-01T23:21:35.717Z,93.31
2017-12-01T23:24:04.783Z,94.35
2017-12-01T23:26:33.098Z,93.59
2017-12-01T23:29:02.159Z,93.69
2017-12-01T23:31:30.479Z,93.51
2017-12-01T23:33:58.825Z,93.04
2017-12-01T23:36:27.141Z,93.37
2017-12-01T23:38:55.498Z,94.64
2017-12-01T23:41:23.812Z,97.03
2017-12-01T23:43:53.593Z,98.27
2017-12-01T23:46:22.686Z,98.17
2017-12-01T23:48:50.998Z,97.47
2017-12-01T23:51:19.327Z,96.77
2017-12-01T23:53:47.644Z,96.48
2017-12-01T23:56:15.963Z,96.33
2017-12-01T23:58:44.312Z,96.33
